Time;durP1;ratioP1;P1;durP2;ratioP2;P2;SDS_P1;SDS_P2;PMS_P1;PMS_P2;Temp;Humidity;BMP_temperature;BMP_pressure;BME280_temperature;BME280_humidity;BME280_pressure;Samples;Min_cycle;Max_cycle;Signal;HPM_P1;HPM_P2
2022/09/15 00:01:09;;;;;;;1.23;1.13;;;22.30;77.50;22.90;95548.00;;;;5080680;28;20253;-84
2022/09/15 00:03:37;;;;;;;1.50;1.10;;;22.30;77.40;22.90;95550.00;;;;5079282;28;20287;-83
2022/09/15 00:06:05;;;;;;;1.67;0.87;;;22.30;77.40;22.90;95561.00;;;;5073655;28;20282;-83
2022/09/15 00:08:33;;;;;;;1.20;1.10;;;22.40;77.50;22.90;95560.00;;;;5073522;28;20228;-83
2022/09/15 00:11:09;;;;;;;3.87;1.23;;;22.40;77.40;22.90;95560.00;;;;5077127;28;20289;-83
2022/09/15 00:13:39;;;;;;;0.73;0.73;;;22.40;78.20;23.00;95550.00;;;;5073768;28;20194;-83
2022/09/15 00:16:07;;;;;;;0.93;0.93;;;22.40;77.40;23.00;95562.00;;;;5073275;28;20292;-83
2022/09/15 00:18:36;;;;;;;1.67;0.70;;;22.40;77.20;23.00;95557.00;;;;5071394;28;20271;-83
2022/09/15 00:21:06;;;;;;;2.53;0.83;;;22.40;77.20;23.00;95553.00;;;;5060619;28;20192;-83
2022/09/15 00:23:34;;;;;;;0.70;0.70;;;22.40;77.10;23.00;95553.00;;;;5074003;28;20579;-83
2022/09/15 00:26:01;;;;;;;0.70;0.70;;;22.40;77.10;23.00;95553.00;;;;5080010;28;20847;-83
2022/09/15 00:28:28;;;;;;;1.23;0.90;;;22.50;77.20;23.00;95556.00;;;;5072141;28;20677;-83
2022/09/15 00:30:57;;;;;;;1.63;0.90;;;22.50;77.20;23.00;95549.00;;;;5073770;28;20311;-83
2022/09/15 00:33:24;;;;;;;1.53;0.70;;;22.50;77.10;23.00;95533.00;;;;5071253;28;20216;-83
2022/09/15 00:35:53;;;;;;;2.17;0.70;;;22.50;77.00;23.00;95536.00;;;;5063625;28;20559;-83
2022/09/15 00:38:21;;;;;;;1.03;0.87;;;22.50;77.00;23.00;95524.00;;;;5071944;28;20986;-83
2022/09/15 00:40:50;;;;;;;0.87;0.70;;;22.50;77.00;23.00;95520.00;;;;5071970;28;20231;-83
2022/09/15 00:43:21;;;;;;;1.47;1.00;;;22.50;76.90;23.00;95524.00;;;;5072208;28;20254;-84
2022/09/15 00:45:49;;;;;;;2.00;0.70;;;22.50;76.80;23.00;95522.00;;;;5061578;28;20269;-83
2022/09/15 00:48:22;;;;;;;0.80;0.80;;;22.50;76.70;23.00;95515.00;;;;5072675;28;20192;-83
2022/09/15 00:50:57;;;;;;;0.70;0.63;;;22.50;76.70;23.00;95512.00;;;;5071393;28;20304;-83
2022/09/15 00:53:27;;;;;;;1.30;0.60;;;22.50;76.60;23.00;95510.00;;;;5072789;28;20242;-83
2022/09/15 00:55:56;;;;;;;1.17;0.70;;;22.50;76.50;23.00;95507.00;;;;5063126;28;20264;-84
2022/09/15 00:58:32;;;;;;;0.60;0.60;;;22.50;76.50;23.00;95505.00;;;;5068479;28;20200;-83
2022/09/15 01:01:02;;;;;;;1.00;0.70;;;22.50;76.40;23.00;95511.00;;;;5070906;28;20223;-83
2022/09/15 01:03:35;;;;;;;0.87;0.77;;;22.50;76.30;23.00;95511.00;;;;5064583;28;20192;-83
2022/09/15 01:06:22;;;;;;;1.03;0.63;;;22.50;76.30;23.00;95515.00;;;;5070418;28;20290;-83
2022/09/15 01:08:59;;;;;;;2.50;0.70;;;22.50;76.30;23.00;95520.00;;;;5067790;28;20210;-83
2022/09/15 01:11:27;;;;;;;1.10;0.80;;;22.50;76.20;23.00;95525.00;;;;5065574;28;20225;-83
2022/09/15 01:13:54;;;;;;;1.40;0.80;;;22.50;76.10;23.00;95517.00;;;;5070538;28;20805;-83
2022/09/15 01:16:41;;;;;;;0.97;0.83;;;22.50;76.00;23.00;95517.00;;;;5068192;28;20200;-83
2022/09/15 01:20:04;;;;;;;0.97;0.70;;;22.50;76.10;23.00;95510.00;;;;5065180;28;20615;-83
2022/09/15 01:22:40;;;;;;;0.63;0.63;;;22.50;76.10;23.00;95509.00;;;;5044439;28;20221;-83
2022/09/15 01:25:17;;;;;;;2.27;0.70;;;22.50;75.80;23.00;95510.00;;;;5079492;28;20188;-83
2022/09/15 01:28:23;;;;;;;0.97;0.60;;;22.50;75.80;22.90;95508.00;;;;5077109;28;20785;-83
2022/09/15 01:31:00;;;;;;;0.83;0.60;;;22.50;75.90;22.90;95500.00;;;;5070518;28;20224;-83
2022/09/15 01:33:36;;;;;;;0.90;0.80;;;22.50;75.70;22.90;95505.00;;;;5078430;28;20224;-84
2022/09/15 01:36:13;;;;;;;1.23;0.80;;;22.50;75.70;22.90;95511.00;;;;5077266;28;20249;-83
2022/09/15 01:39:00;;;;;;;1.33;0.57;;;22.40;75.70;22.90;95497.00;;;;5076577;28;20232;-83
2022/09/15 01:41:33;;;;;;;0.57;0.57;;;22.50;75.90;23.00;95488.00;;;;5075479;28;20227;-83
2022/09/15 01:44:06;;;;;;;0.70;0.70;;;22.50;75.70;23.00;95481.00;;;;5071217;28;20626;-84
2022/09/15 01:46:41;;;;;;;0.70;0.70;;;22.50;75.70;23.00;95494.00;;;;5061037;28;20197;-83
2022/09/15 01:49:14;;;;;;;0.60;0.60;;;22.50;75.80;23.00;95486.00;;;;5076082;28;20622;-83
2022/09/15 01:51:43;;;;;;;0.90;0.53;;;22.50;75.80;23.00;95488.00;;;;5077003;28;20267;-83
2022/09/15 01:54:13;;;;;;;0.70;0.70;;;22.50;75.80;23.00;95482.00;;;;5074975;28;20283;-83
2022/09/15 01:56:41;;;;;;;0.50;0.50;;;22.50;76.50;23.00;95489.00;;;;5074270;28;20199;-83
2022/09/15 01:59:09;;;;;;;1.47;0.60;;;22.50;75.70;23.00;95487.00;;;;5064679;28;20193;-83
2022/09/15 02:01:50;;;;;;;0.60;0.60;;;22.50;75.70;23.00;95490.00;;;;5074454;28;20258;-83
2022/09/15 02:04:26;;;;;;;0.87;0.83;;;22.50;76.30;23.00;95482.00;;;;5074049;28;20699;-83
2022/09/15 02:07:02;;;;;;;0.60;0.60;;;22.50;75.50;23.00;95473.00;;;;5064841;28;20563;-83
2022/09/15 02:09:36;;;;;;;0.70;0.70;;;22.50;75.50;23.00;95487.00;;;;5074382;28;20207;-83
2022/09/15 02:12:11;;;;;;;0.80;0.60;;;22.40;75.20;23.00;95477.00;;;;5073404;28;20247;-83
2022/09/15 02:14:54;;;;;;;0.50;0.50;;;22.50;75.10;22.90;95474.00;;;;5074193;28;20202;-83
2022/09/15 02:17:30;;;;;;;1.40;0.73;;;22.50;75.00;22.90;95476.00;;;;5077822;28;20198;-83
2022/09/15 02:20:07;;;;;;;1.43;0.60;;;22.40;74.80;22.90;95474.00;;;;5075013;28;20202;-83
2022/09/15 02:22:39;;;;;;;0.70;0.50;;;22.50;74.80;22.90;95484.00;;;;5069632;28;20242;-83
2022/09/15 02:25:12;;;;;;;0.97;0.63;;;22.40;74.60;22.90;95479.00;;;;5074359;28;20245;-83
2022/09/15 02:27:46;;;;;;;0.63;0.53;;;22.40;74.60;22.90;95478.00;;;;5072414;28;20291;-83
2022/09/15 02:30:19;;;;;;;0.50;0.50;;;22.40;74.50;22.80;95470.00;;;;5079872;28;20203;-83
2022/09/15 02:32:54;;;;;;;1.70;0.60;;;22.40;74.40;22.90;95484.00;;;;5073192;28;20231;-83
2022/09/15 02:35:25;;;;;;;0.93;0.83;;;22.40;74.50;22.80;95486.00;;;;5072127;28;20203;-82
2022/09/15 02:37:55;;;;;;;0.73;0.70;;;22.40;74.20;22.80;95487.00;;;;5068749;28;20196;-83
2022/09/15 02:40:23;;;;;;;0.63;0.60;;;22.40;74.10;22.80;95480.00;;;;5074146;28;20192;-83
2022/09/15 02:42:55;;;;;;;1.20;0.50;;;22.40;73.90;22.80;95488.00;;;;5070459;28;20250;-83
2022/09/15 02:45:23;;;;;;;0.87;0.60;;;22.40;73.90;22.80;95482.00;;;;5075353;28;20212;-83
2022/09/15 02:47:51;;;;;;;0.60;0.60;;;22.40;73.90;22.80;95485.00;;;;5077057;28;20204;-83
2022/09/15 02:50:20;;;;;;;0.80;0.80;;;22.40;73.80;22.80;95489.00;;;;5075344;28;20624;-83
2022/09/15 02:52:47;;;;;;;0.57;0.47;;;22.40;73.70;22.80;95484.00;;;;5075512;28;20219;-83
2022/09/15 02:55:14;;;;;;;1.80;0.70;;;22.40;73.60;22.80;95491.00;;;;5075845;28;20200;-83
2022/09/15 02:57:41;;;;;;;0.70;0.70;;;22.40;73.50;22.80;95485.00;;;;5074904;28;20276;-83
2022/09/15 03:00:14;;;;;;;0.50;0.50;;;22.40;73.50;22.80;95486.00;;;;5075081;28;20290;-83
2022/09/15 03:02:44;;;;;;;1.47;1.10;;;22.40;73.50;22.80;95480.00;;;;5074675;28;20230;-83
2022/09/15 03:05:15;;;;;;;0.80;0.70;;;22.40;73.40;22.80;95482.00;;;;5072561;28;20215;-83
2022/09/15 03:07:42;;;;;;;1.07;0.60;;;22.40;73.30;22.90;95480.00;;;;5073966;28;20200;-83
2022/09/15 03:10:12;;;;;;;1.40;0.60;;;22.40;73.20;22.90;95472.00;;;;5073003;28;20287;-83
2022/09/15 03:12:40;;;;;;;0.70;0.70;;;22.40;73.30;22.90;95487.00;;;;5070236;28;20231;-83
2022/09/15 03:15:09;;;;;;;0.50;0.50;;;22.40;73.30;22.90;95487.00;;;;5073824;28;20200;-83
2022/09/15 03:17:40;;;;;;;1.00;0.90;;;22.40;73.30;22.90;95489.00;;;;5072603;28;20196;-83
2022/09/15 03:20:10;;;;;;;0.70;0.70;;;22.40;73.20;22.90;95497.00;;;;5074826;28;20655;-82
2022/09/15 03:22:39;;;;;;;2.10;0.93;;;22.40;73.10;22.80;95502.00;;;;5074103;28;20622;-83
2022/09/15 03:25:08;;;;;;;0.70;0.60;;;22.40;73.00;22.80;95495.00;;;;5072599;28;20230;-83
2022/09/15 03:27:36;;;;;;;0.40;0.40;;;22.40;73.00;22.80;95499.00;;;;5073390;28;20249;-83
2022/09/15 03:30:06;;;;;;;1.00;0.63;;;22.40;73.00;22.80;95496.00;;;;5072159;28;20589;-83
2022/09/15 03:32:33;;;;;;;0.83;0.50;;;22.40;72.90;22.80;95492.00;;;;5070892;28;20219;-83
2022/09/15 03:35:00;;;;;;;0.57;0.50;;;22.40;73.00;22.80;95491.00;;;;5072313;28;20230;-83
2022/09/15 03:37:28;;;;;;;0.70;0.70;;;22.40;72.90;22.80;95494.00;;;;5067119;28;20279;-83
2022/09/15 03:39:56;;;;;;;3.60;1.00;;;22.40;72.90;22.80;95494.00;;;;5072593;28;20207;-83
2022/09/15 03:42:24;;;;;;;0.97;0.67;;;22.40;72.90;22.80;95494.00;;;;5064510;28;20273;-83
2022/09/15 03:44:51;;;;;;;1.27;0.50;;;22.40;72.80;22.80;95488.00;;;;5072368;28;20295;-82
2022/09/15 03:47:18;;;;;;;0.47;0.47;;;22.40;72.70;22.80;95492.00;;;;5071373;28;20294;-83
2022/09/15 03:49:45;;;;;;;0.97;0.60;;;22.40;72.70;22.80;95492.00;;;;5072889;28;20200;-83
2022/09/15 03:52:12;;;;;;;0.87;0.60;;;22.40;72.70;22.90;95492.00;;;;5072089;28;20216;-83
2022/09/15 03:54:39;;;;;;;0.87;0.70;;;22.40;72.80;22.90;95490.00;;;;5071527;28;20192;-83
2022/09/15 03:57:07;;;;;;;0.60;0.60;;;22.40;73.50;22.80;95497.00;;;;5071151;28;20208;-82
2022/09/15 03:59:34;;;;;;;2.00;0.80;;;22.40;72.80;22.80;95491.00;;;;5072765;28;20196;-83
2022/09/15 04:02:01;;;;;;;0.97;0.70;;;22.40;72.60;22.80;95491.00;;;;5077920;28;20310;-83
2022/09/15 04:04:29;;;;;;;1.80;0.87;;;22.40;72.50;22.80;95494.00;;;;5078437;28;20336;-83
2022/09/15 04:06:56;;;;;;;1.33;0.50;;;22.40;72.40;22.80;95478.00;;;;5067502;28;20283;-82
2022/09/15 04:09:24;;;;;;;0.83;0.60;;;22.40;72.30;22.80;95487.00;;;;5070427;28;20219;-83
2022/09/15 04:11:51;;;;;;;0.63;0.60;;;22.40;72.30;22.90;95481.00;;;;5068077;28;20227;-83
2022/09/15 04:14:20;;;;;;;0.97;0.50;;;22.40;72.30;22.90;95481.00;;;;5075550;28;20224;-83
2022/09/15 04:16:47;;;;;;;0.67;0.67;;;22.40;72.50;22.90;95476.00;;;;5074969;28;20218;-83
2022/09/15 04:19:14;;;;;;;1.33;0.70;;;22.40;72.50;22.90;95490.00;;;;5072651;28;20234;-82
2022/09/15 04:21:41;;;;;;;0.83;0.60;;;22.40;72.30;22.90;95489.00;;;;5072488;28;20741;-85
2022/09/15 04:24:10;;;;;;;0.50;0.40;;;22.40;72.30;23.00;95477.00;;;;5069751;28;20278;-86
2022/09/15 04:26:38;;;;;;;0.60;0.50;;;22.50;72.30;23.00;95486.00;;;;5067304;28;20282;-85
2022/09/15 04:29:12;;;;;;;1.70;0.50;;;22.50;72.10;23.00;95488.00;;;;5067254;28;20661;-85
2022/09/15 04:31:40;;;;;;;0.73;0.43;;;22.50;72.90;23.00;95479.00;;;;5068745;28;20231;-86
2022/09/15 04:34:08;;;;;;;1.33;0.70;;;22.50;72.00;23.00;95480.00;;;;5068548;28;20579;-85
2022/09/15 04:36:35;;;;;;;1.33;0.80;;;22.50;71.90;23.00;95478.00;;;;5070096;28;20196;-86
2022/09/15 04:39:02;;;;;;;0.77;0.43;;;22.50;71.80;23.10;95482.00;;;;5064673;28;20283;-86
2022/09/15 04:41:30;;;;;;;0.80;0.60;;;22.50;71.60;23.10;95482.00;;;;5062909;28;20269;-86
2022/09/15 04:43:57;;;;;;;0.90;0.50;;;22.50;72.30;23.10;95475.00;;;;5074637;28;20542;-86
2022/09/15 04:46:24;;;;;;;0.50;0.40;;;22.60;71.40;23.10;95478.00;;;;5067319;28;20649;-85
2022/09/15 04:48:53;;;;;;;0.43;0.40;;;22.50;71.40;23.10;95471.00;;;;5090070;28;20289;-86
2022/09/15 04:51:22;;;;;;;1.43;0.43;;;22.60;71.10;23.10;95469.00;;;;5072562;28;20196;-86
2022/09/15 04:53:51;;;;;;;1.77;0.50;;;22.60;71.10;23.10;95471.00;;;;5070530;28;20708;-84
2022/09/15 04:56:22;;;;;;;0.67;0.60;;;22.50;70.80;23.00;95464.00;;;;5073502;28;20247;-84
2022/09/15 04:58:51;;;;;;;0.67;0.40;;;22.60;70.70;23.00;95466.00;;;;5074020;28;20202;-86
2022/09/15 05:01:21;;;;;;;0.60;0.50;;;22.50;70.70;23.00;95466.00;;;;5073163;28;20717;-86
2022/09/15 05:03:48;;;;;;;0.50;0.40;;;22.60;70.70;23.00;95458.00;;;;5072560;28;20204;-86
2022/09/15 05:06:20;;;;;;;0.57;0.50;;;22.60;70.50;23.00;95465.00;;;;5074058;28;20192;-86
2022/09/15 05:08:48;;;;;;;0.70;0.60;;;22.50;70.30;23.00;95461.00;;;;5074271;28;20227;-85
2022/09/15 05:11:17;;;;;;;0.60;0.40;;;22.60;70.50;23.00;95461.00;;;;5073682;28;20236;-87
2022/09/15 05:13:45;;;;;;;0.70;0.50;;;22.50;70.50;23.00;95463.00;;;;5076387;28;20184;-87
2022/09/15 05:19:01;;;;;;;1.13;0.53;;;22.50;70.40;23.00;95459.00;;;;5075072;28;20200;-89
2022/09/15 05:21:31;;;;;;;0.77;0.40;;;22.50;70.50;23.00;95466.00;;;;5075717;28;20219;-88
2022/09/15 05:23:58;;;;;;;0.50;0.50;;;22.50;70.50;23.00;95461.00;;;;5076181;28;20279;-89
2022/09/15 05:26:28;;;;;;;0.60;0.60;;;22.50;70.70;23.00;95465.00;;;;5076097;28;20207;-85
2022/09/15 05:32:01;;;;;;;0.80;0.80;;;22.60;70.50;23.10;95469.00;;;;5075726;28;20231;-86
2022/09/15 05:34:28;;;;;;;0.50;0.50;;;22.50;70.40;23.10;95471.00;;;;5076357;28;20208;-86
2022/09/15 05:36:58;;;;;;;1.43;0.63;;;22.50;70.40;23.10;95471.00;;;;5075899;28;20196;-87
2022/09/15 05:39:30;;;;;;;1.07;0.50;;;22.50;70.40;23.10;95466.00;;;;5057895;28;20636;-86
2022/09/15 05:41:57;;;;;;;0.60;0.50;;;22.50;70.40;23.10;95484.00;;;;5075574;28;20212;-89
2022/09/15 05:44:24;;;;;;;0.73;0.50;;;22.50;70.30;23.10;95477.00;;;;5075832;28;20282;-86
2022/09/15 05:46:52;;;;;;;1.77;0.50;;;22.60;70.30;23.10;95481.00;;;;5075675;28;20230;-87
2022/09/15 05:49:19;;;;;;;0.70;0.47;;;22.60;70.20;23.10;95479.00;;;;5075647;28;20203;-86
2022/09/15 05:51:46;;;;;;;2.30;0.57;;;22.60;70.10;23.10;95480.00;;;;5075134;28;20241;-86
2022/09/15 05:54:15;;;;;;;0.33;0.30;;;22.60;70.10;23.10;95481.00;;;;5075425;28;20209;-85
2022/09/15 05:56:42;;;;;;;1.40;0.50;;;22.60;70.70;23.10;95485.00;;;;5075512;28;20199;-85
2022/09/15 05:59:09;;;;;;;0.30;0.30;;;22.60;69.90;23.10;95487.00;;;;5075427;28;20704;-85
2022/09/15 06:01:36;;;;;;;0.70;0.40;;;22.60;69.80;23.10;95478.00;;;;5075073;28;20294;-86
2022/09/15 06:04:04;;;;;;;1.00;0.40;;;22.60;69.80;23.10;95480.00;;;;5075341;28;20669;-85
2022/09/15 06:06:32;;;;;;;1.03;0.30;;;22.70;69.70;23.20;95479.00;;;;5074570;28;20200;-85
2022/09/15 06:09:00;;;;;;;2.00;0.30;;;22.60;69.50;23.10;95475.00;;;;5075075;28;20215;-86
2022/09/15 06:11:32;;;;;;;0.77;0.40;;;22.60;69.50;23.20;95476.00;;;;5074809;28;20712;-85
2022/09/15 06:14:01;;;;;;;0.20;0.20;;;22.70;69.30;23.20;95484.00;;;;5075020;28;20193;-85
2022/09/15 06:16:33;;;;;;;0.60;0.40;;;22.70;69.40;23.20;95481.00;;;;5075157;28;20200;-85
2022/09/15 06:19:02;;;;;;;0.30;0.30;;;22.70;69.40;23.20;95478.00;;;;5074853;28;20216;-88
2022/09/15 06:21:31;;;;;;;0.47;0.30;;;22.70;69.40;23.10;95486.00;;;;5054000;28;20223;-85
2022/09/15 06:24:02;;;;;;;0.37;0.37;;;22.70;69.30;23.10;95487.00;;;;5054405;28;20647;-85
2022/09/15 06:26:30;;;;;;;0.50;0.40;;;22.70;69.10;23.10;95494.00;;;;5054533;28;20712;-85
2022/09/15 06:29:00;;;;;;;1.10;0.30;;;22.70;69.00;23.10;95493.00;;;;5054837;28;20288;-86
2022/09/15 06:31:30;;;;;;;0.43;0.30;;;22.70;69.10;23.20;95486.00;;;;5054179;28;20311;-86
2022/09/15 06:33:58;;;;;;;0.37;0.30;;;22.70;69.10;23.10;95497.00;;;;5053585;28;20255;-86
2022/09/15 06:36:28;;;;;;;0.63;0.40;;;22.70;69.10;23.20;95495.00;;;;5063841;28;20226;-86
2022/09/15 06:38:56;;;;;;;1.00;0.33;;;22.70;69.10;23.30;95496.00;;;;5094893;28;20568;-86
2022/09/15 06:41:23;;;;;;;0.33;0.27;;;22.70;69.30;23.30;95497.00;;;;5094156;28;20779;-87
2022/09/15 06:43:52;;;;;;;0.63;0.37;;;22.70;69.20;23.30;95496.00;;;;5089447;28;20238;-85
2022/09/15 06:46:22;;;;;;;0.33;0.30;;;22.80;69.20;23.30;95509.00;;;;5084438;28;20223;-88
2022/09/15 06:48:50;;;;;;;0.20;0.13;;;22.80;69.10;23.30;95507.00;;;;5095072;28;20236;-86
2022/09/15 06:51:19;;;;;;;0.90;0.30;;;22.80;69.10;23.40;95517.00;;;;5094464;28;20249;-85
2022/09/15 06:57:01;;;;;;;0.57;0.40;;;22.80;68.90;23.40;95514.00;;;;5093464;28;20209;-85
2022/09/15 06:59:31;;;;;;;0.47;0.40;;;22.90;68.60;23.40;95514.00;;;;5093789;28;20207;-85
2022/09/15 07:01:58;;;;;;;0.30;0.30;;;22.90;68.80;23.40;95509.00;;;;5094144;28;20302;-86
2022/09/15 07:04:25;;;;;;;0.77;0.30;;;22.90;68.80;23.50;95513.00;;;;5094305;28;20199;-85
2022/09/15 07:06:52;;;;;;;0.30;0.30;;;22.90;68.80;23.50;95517.00;;;;5094470;28;20207;-85
2022/09/15 07:09:19;;;;;;;0.47;0.30;;;22.90;68.80;23.50;95519.00;;;;5094190;28;20695;-87
2022/09/15 07:11:47;;;;;;;0.33;0.30;;;22.90;68.60;23.50;95523.00;;;;5093961;28;20311;-86
2022/09/15 07:14:14;;;;;;;0.30;0.30;;;23.00;68.50;23.50;95523.00;;;;5093796;28;20250;-88
2022/09/15 07:16:43;;;;;;;0.83;0.50;;;23.00;68.60;23.50;95527.00;;;;5093458;28;20199;-86
2022/09/15 07:19:10;;;;;;;0.20;0.20;;;23.00;68.50;23.50;95530.00;;;;5092427;28;20227;-89
2022/09/15 07:21:37;;;;;;;0.50;0.50;;;23.00;68.50;23.50;95531.00;;;;5094344;28;20219;-86
2022/09/15 07:24:05;;;;;;;0.67;0.40;;;23.00;68.50;23.50;95526.00;;;;5094385;28;20279;-87
2022/09/15 07:26:32;;;;;;;0.40;0.40;;;23.00;68.30;23.50;95525.00;;;;5094128;28;20195;-86
2022/09/15 07:29:02;;;;;;;0.73;0.63;;;23.00;68.30;23.50;95519.00;;;;5084895;28;20196;-86
2022/09/15 07:31:33;;;;;;;0.50;0.30;;;23.00;68.40;23.50;95528.00;;;;5073505;28;20307;-86
2022/09/15 07:34:07;;;;;;;0.33;0.33;;;23.00;69.10;23.60;95528.00;;;;5073142;28;20219;-86
2022/09/15 07:36:36;;;;;;;0.57;0.30;;;23.10;68.40;23.60;95525.00;;;;5073627;28;20201;-86
2022/09/15 07:39:05;;;;;;;0.40;0.40;;;23.10;68.40;23.60;95530.00;;;;5073529;28;20208;-86
2022/09/15 07:41:33;;;;;;;0.40;0.40;;;23.10;68.50;23.60;95523.00;;;;5073304;28;20231;-90
2022/09/15 07:44:02;;;;;;;0.30;0.30;;;23.00;68.40;23.70;95519.00;;;;5073483;28;20200;-88
2022/09/15 07:46:32;;;;;;;0.30;0.30;;;23.10;68.40;23.70;95524.00;;;;5073258;28;20228;-87
2022/09/15 07:49:02;;;;;;;1.30;0.30;;;23.10;68.40;23.70;95533.00;;;;5073032;28;20681;-86
2022/09/15 07:51:30;;;;;;;0.40;0.40;;;23.20;68.60;23.80;95532.00;;;;5073704;28;20616;-86
2022/09/15 07:53:58;;;;;;;0.43;0.33;;;23.20;68.60;23.90;95539.00;;;;5072937;28;20268;-86
2022/09/15 07:56:25;;;;;;;1.13;0.40;;;23.20;68.60;23.90;95536.00;;;;5073237;28;20289;-85
2022/09/15 07:58:52;;;;;;;0.80;0.33;;;23.30;68.50;24.00;95527.00;;;;5073230;28;20220;-86
2022/09/15 08:01:22;;;;;;;1.27;0.40;;;23.30;68.40;24.10;95523.00;;;;5073601;28;20205;-87
2022/09/15 08:03:51;;;;;;;0.87;0.33;;;23.40;68.40;24.10;95542.00;;;;5073478;28;20254;-86
2022/09/15 08:06:24;;;;;;;0.30;0.30;;;23.40;68.50;24.30;95540.00;;;;5061298;28;20211;-86
2022/09/15 08:08:52;;;;;;;0.70;0.37;;;23.50;68.90;24.40;95540.00;;;;5072821;28;20204;-86
2022/09/15 08:14:07;;;;;;;0.30;0.30;;;23.70;69.30;24.60;95538.00;;;;5071986;28;20328;-88
2022/09/15 08:16:35;;;;;;;0.23;0.23;;;23.80;69.20;24.70;95549.00;;;;5072929;28;20209;-85
2022/09/15 08:19:13;;;;;;;0.50;0.50;;;23.90;68.80;24.80;95547.00;;;;5072337;28;20211;-86
2022/09/15 08:21:42;;;;;;;0.40;0.30;;;24.00;68.50;24.80;95540.00;;;;5072789;28;20218;-85
2022/09/15 08:24:15;;;;;;;0.30;0.30;;;24.00;67.90;24.90;95540.00;;;;5072728;28;20199;-86
2022/09/15 08:26:52;;;;;;;1.33;0.67;;;24.10;67.90;25.00;95520.00;;;;5073054;28;20207;-86
2022/09/15 08:29:21;;;;;;;0.17;0.17;;;24.10;67.90;25.00;95547.00;;;;5072380;28;20213;-86
2022/09/15 08:31:49;;;;;;;0.50;0.40;;;24.20;67.50;25.10;95539.00;;;;5072775;28;20234;-86
2022/09/15 08:34:17;;;;;;;0.50;0.30;;;24.30;67.50;25.20;95539.00;;;;5071978;28;20579;-87
2022/09/15 08:36:46;;;;;;;0.30;0.30;;;24.40;67.60;25.30;95542.00;;;;5072994;28;20203;-87
2022/09/15 08:39:15;;;;;;;0.30;0.20;;;24.40;67.60;25.30;95547.00;;;;5072615;28;20231;-86
2022/09/15 08:41:46;;;;;;;1.53;0.30;;;24.50;67.60;25.40;95549.00;;;;5072569;28;20862;-86
2022/09/15 08:44:32;;;;;;;0.83;0.30;;;24.60;67.60;25.40;95542.00;;;;5072148;28;20214;-86
2022/09/15 08:47:08;;;;;;;0.40;0.30;;;24.60;67.00;25.50;95544.00;;;;5072126;28;20186;-85
2022/09/15 08:49:48;;;;;;;1.23;0.40;;;24.70;66.90;25.60;95535.00;;;;5072339;28;20630;-85
2022/09/15 08:52:28;;;;;;;0.70;0.30;;;24.70;66.30;25.60;95545.00;;;;5067442;28;20222;-86
2022/09/15 08:55:01;;;;;;;0.30;0.23;;;24.80;66.00;25.70;95548.00;;;;5072359;28;20207;-85
2022/09/15 08:57:28;;;;;;;0.60;0.33;;;24.90;66.20;25.70;95542.00;;;;5072141;28;20195;-85
2022/09/15 08:59:58;;;;;;;0.80;0.40;;;24.90;66.20;25.80;95538.00;;;;5072463;28;20206;-86
2022/09/15 09:03:00;;;;;;;0.30;0.30;;;25.00;65.90;25.90;95542.00;;;;5072106;28;20224;-86
2022/09/15 09:06:07;;;;;;;0.50;0.40;;;25.10;65.30;25.90;95550.00;;;;5052075;28;20249;-88
2022/09/15 09:09:26;;;;;;;0.60;0.30;;;25.10;64.90;26.00;95536.00;;;;5061201;28;20278;-85
2022/09/15 09:12:21;;;;;;;0.57;0.43;;;25.20;63.90;26.00;95545.00;;;;5066953;28;20250;-86
2022/09/15 09:15:15;;;;;;;0.40;0.40;;;25.30;65.10;26.10;95538.00;;;;5072333;28;20614;-86
2022/09/15 09:18:16;;;;;;;0.30;0.30;;;25.30;64.70;26.30;95531.00;;;;5071700;28;20215;-86
2022/09/15 09:21:04;;;;;;;0.57;0.27;;;25.40;64.90;26.40;95538.00;;;;5072193;28;20302;-86
2022/09/15 09:23:41;;;;;;;0.73;0.40;;;25.50;64.40;26.50;95532.00;;;;5072156;28;20634;-85
2022/09/15 09:26:14;;;;;;;0.43;0.43;;;25.60;64.20;26.60;95533.00;;;;5071165;28;20225;-86
2022/09/15 09:28:49;;;;;;;1.23;0.40;;;25.60;63.90;26.60;95531.00;;;;5077120;28;20204;-86
2022/09/15 09:31:23;;;;;;;0.50;0.30;;;25.80;64.10;26.70;95530.00;;;;5072019;28;20172;-87
2022/09/15 09:34:01;;;;;;;0.50;0.40;;;25.80;64.30;26.80;95532.00;;;;5071771;28;20211;-87
2022/09/15 09:36:29;;;;;;;0.40;0.40;;;25.90;64.40;26.90;95526.00;;;;5071815;28;20212;-87
2022/09/15 09:38:57;;;;;;;0.50;0.40;;;26.00;64.10;26.90;95524.00;;;;5071733;28;20196;-86
2022/09/15 09:41:34;;;;;;;1.13;0.30;;;26.00;63.80;26.90;95526.00;;;;5073149;28;20560;-89
2022/09/15 09:44:06;;;;;;;0.20;0.20;;;26.10;63.10;26.90;95527.00;;;;5075700;28;20544;-86
2022/09/15 09:46:34;;;;;;;0.30;0.30;;;26.10;62.60;27.00;95532.00;;;;5075209;28;20607;-85
2022/09/15 09:49:10;;;;;;;1.17;0.40;;;26.10;62.60;27.00;95516.00;;;;5075440;28;20211;-86
2022/09/15 09:51:47;;;;;;;0.43;0.30;;;26.20;62.10;27.00;95518.00;;;;5074711;28;20212;-86
2022/09/15 09:54:16;;;;;;;0.43;0.30;;;26.20;62.30;27.00;95520.00;;;;5074845;28;20215;-88
2022/09/15 09:56:45;;;;;;;0.40;0.40;;;26.20;61.40;27.00;95514.00;;;;5074346;28;20201;-87
2022/09/15 09:59:40;;;;;;;0.30;0.27;;;26.20;61.30;27.00;95509.00;;;;5075256;28;20207;-87
2022/09/15 10:02:17;;;;;;;0.40;0.40;;;26.30;60.60;27.00;95507.00;;;;5075155;28;20302;-86
2022/09/15 10:04:47;;;;;;;1.17;0.40;;;26.30;60.70;26.90;95511.00;;;;5074772;28;20199;-86
2022/09/15 10:07:18;;;;;;;1.37;0.30;;;26.20;60.80;26.90;95499.00;;;;5075143;28;20237;-85
2022/09/15 10:09:53;;;;;;;1.50;0.43;;;26.20;60.20;26.90;95500.00;;;;5074761;28;20283;-87
2022/09/15 10:12:46;;;;;;;0.70;0.40;;;26.20;59.80;26.80;95486.00;;;;5074428;28;20215;-85
2022/09/15 10:15:23;;;;;;;0.70;0.30;;;26.20;59.90;26.80;95503.00;;;;5072515;28;20199;-85
2022/09/15 10:17:56;;;;;;;0.80;0.47;;;26.20;59.70;26.80;95502.00;;;;5071910;28;20279;-87
2022/09/15 10:20:32;;;;;;;0.77;0.30;;;26.00;59.80;26.70;95501.00;;;;5074802;28;20263;-85
2022/09/15 10:23:05;;;;;;;0.50;0.40;;;26.10;59.40;26.70;95503.00;;;;5074366;28;20227;-86
2022/09/15 10:25:36;;;;;;;0.40;0.30;;;26.00;59.10;26.60;95504.00;;;;5084099;28;20665;-86
2022/09/15 10:28:14;;;;;;;0.63;0.53;;;26.00;59.10;26.50;95501.00;;;;5074904;28;20196;-86
2022/09/15 10:31:00;;;;;;;0.33;0.30;;;26.00;59.30;26.50;95496.00;;;;5073888;28;20287;-86
2022/09/15 10:33:44;;;;;;;0.20;0.20;;;25.90;59.30;26.40;95499.00;;;;5074368;28;20696;-86
2022/09/15 10:36:16;;;;;;;0.30;0.30;;;25.80;59.80;26.40;95505.00;;;;5074555;28;20196;-86
2022/09/15 10:38:46;;;;;;;0.57;0.37;;;25.80;59.90;26.30;95500.00;;;;5074132;28;20196;-86
2022/09/15 10:41:28;;;;;;;0.30;0.30;;;25.70;59.80;26.30;95502.00;;;;5074477;28;20380;-86
2022/09/15 10:44:31;;;;;;;0.37;0.37;;;25.70;59.80;26.20;95511.00;;;;5074144;28;20286;-88
2022/09/15 10:47:16;;;;;;;0.20;0.20;;;25.70;60.00;26.20;95506.00;;;;5065759;28;20204;-87
2022/09/15 10:50:04;;;;;;;0.80;0.20;;;25.60;60.10;26.20;95507.00;;;;5079548;28;20196;-87
2022/09/15 10:52:51;;;;;;;0.20;0.20;;;25.60;60.10;26.20;95505.00;;;;5072090;28;20299;-87
2022/09/15 10:55:39;;;;;;;0.40;0.30;;;25.60;60.10;26.20;95506.00;;;;5078001;28;20740;-86
2022/09/15 10:58:30;;;;;;;0.40;0.23;;;25.60;60.10;26.20;95506.00;;;;5072751;28;20194;-87
2022/09/15 11:01:17;;;;;;;0.30;0.30;;;25.60;59.70;26.20;95492.00;;;;5062628;28;20204;-87
2022/09/15 11:04:21;;;;;;;0.20;0.20;;;25.60;60.00;26.20;95499.00;;;;5074101;28;20287;-87
2022/09/15 11:07:02;;;;;;;0.30;0.30;;;25.60;60.10;26.20;95509.00;;;;5074807;28;20207;-85
2022/09/15 11:09:38;;;;;;;0.60;0.30;;;25.50;60.70;26.20;95492.00;;;;5073929;28;20203;-86
2022/09/15 11:12:27;;;;;;;0.40;0.40;;;25.50;59.90;26.20;95492.00;;;;5090264;22;20273;-84
2022/09/15 11:15:23;;;;;;;0.23;0.23;;;25.50;59.80;26.20;95488.00;;;;5066279;28;20238;-83
2022/09/15 11:18:16;;;;;;;0.60;0.20;;;25.50;59.90;26.30;95483.00;;;;5067733;28;20217;-84
2022/09/15 11:21:14;;;;;;;0.23;0.23;;;25.60;60.80;26.40;95488.00;;;;5068975;28;20220;-84
2022/09/15 11:23:49;;;;;;;0.30;0.30;;;25.60;60.90;26.50;95486.00;;;;5070907;28;20196;-84
2022/09/15 11:26:24;;;;;;;0.97;0.30;;;25.70;61.10;26.70;95476.00;;;;5056247;28;20279;-84
2022/09/15 11:28:59;;;;;;;1.10;0.30;;;25.80;60.70;26.80;95494.00;;;;5052359;28;20274;-83
2022/09/15 11:31:33;;;;;;;1.40;0.20;;;25.90;59.90;26.80;95503.00;;;;5042769;28;20294;-83